Time;durP1;ratioP1;P1;durP2;ratioP2;P2;SDS_P1;SDS_P2;PMS_P1;PMS_P2;Temp;Humidity;BMP_temperature;BMP_pressure;BME280_temperature;BME280_humidity;BME280_pressure;Samples;Min_cycle;Max_cycle;Signal;HPM_P1;HPM_P2
2022/10/06 00:02:18;;;;;;;3.00;2.50;;;22.70;51.60;;;;;;5046542;28;20206;-53
2022/10/06 00:04:44;;;;;;;3.70;2.33;;;22.70;51.10;;;;;;5042912;28;20193;-48
2022/10/06 00:07:09;;;;;;;3.30;2.70;;;22.70;51.10;;;;;;5047396;28;20486;-51
2022/10/06 00:09:35;;;;;;;3.03;2.73;;;22.70;51.10;;;;;;5047457;28;20523;-52
2022/10/06 00:12:01;;;;;;;4.27;2.70;;;22.80;51.10;;;;;;5048522;28;20200;-48
2022/10/06 00:14:26;;;;;;;4.93;2.57;;;22.80;50.90;;;;;;5048299;28;22523;-51
2022/10/06 00:16:52;;;;;;;3.30;3.00;;;22.80;50.60;;;;;;5044550;28;20205;-52
2022/10/06 00:19:17;;;;;;;2.90;2.43;;;22.80;50.70;;;;;;5040927;28;20279;-52
2022/10/06 00:21:43;;;;;;;2.80;2.60;;;22.80;50.50;;;;;;5033082;28;20274;-52
2022/10/06 00:24:09;;;;;;;3.40;2.57;;;22.80;50.50;;;;;;5038623;28;20200;-52
2022/10/06 00:26:34;;;;;;;5.37;2.77;;;22.80;50.60;;;;;;5040327;28;20641;-48
2022/10/06 00:29:00;;;;;;;3.20;2.70;;;22.80;50.50;;;;;;5047478;28;20239;-49
2022/10/06 00:31:26;;;;;;;2.20;2.00;;;22.80;50.30;;;;;;5046293;28;20197;-51
2022/10/06 00:33:51;;;;;;;2.60;2.40;;;22.80;50.40;;;;;;5042140;28;20192;-52
2022/10/06 00:36:17;;;;;;;4.30;2.50;;;22.80;50.50;;;;;;5036282;28;20343;-48
2022/10/06 00:38:43;;;;;;;6.13;2.80;;;22.90;50.50;;;;;;5042344;28;20203;-50
2022/10/06 00:41:12;;;;;;;3.33;2.97;;;22.80;50.20;;;;;;5046114;28;20454;-48
2022/10/06 00:43:52;;;;;;;2.43;2.23;;;22.80;50.20;;;;;;5049019;28;20185;-48
2022/10/06 00:46:35;;;;;;;2.53;2.30;;;22.80;50.20;;;;;;5044559;28;20464;-48
2022/10/06 00:49:04;;;;;;;2.47;2.27;;;22.70;50.20;;;;;;5044533;28;20573;-50
2022/10/06 00:51:31;;;;;;;4.00;2.60;;;22.70;50.50;;;;;;5042754;28;20961;-48
2022/10/06 00:53:57;;;;;;;2.67;2.47;;;22.70;50.50;;;;;;5045317;28;20446;-49
2022/10/06 00:56:23;;;;;;;2.77;2.40;;;22.60;50.20;;;;;;5046447;28;20450;-48
2022/10/06 00:58:49;;;;;;;2.57;2.37;;;22.70;50.20;;;;;;5048834;28;20195;-49
2022/10/06 01:01:15;;;;;;;3.00;2.70;;;22.60;50.40;;;;;;5043888;28;20435;-49
2022/10/06 01:03:54;;;;;;;2.40;2.17;;;22.30;50.70;;;;;;5045715;28;20271;-53
2022/10/06 01:06:20;;;;;;;3.93;2.97;;;22.20;51.00;;;;;;5042224;28;20279;-49
2022/10/06 01:08:45;;;;;;;5.73;2.57;;;22.10;51.00;;;;;;5042522;28;20618;-49
2022/10/06 01:11:13;;;;;;;2.60;2.40;;;22.10;51.00;;;;;;5041832;28;20439;-48
2022/10/06 01:13:42;;;;;;;2.20;2.00;;;22.20;51.10;;;;;;5048825;28;20199;-49
2022/10/06 01:16:18;;;;;;;3.70;2.87;;;22.20;51.00;;;;;;5043361;28;20546;-49
2022/10/06 01:18:46;;;;;;;3.40;2.80;;;22.30;51.00;;;;;;5044929;28;20463;-48
2022/10/06 01:21:24;;;;;;;3.93;2.60;;;22.30;51.40;;;;;;5043956;28;20443;-48
2022/10/06 01:23:51;;;;;;;3.10;2.10;;;22.30;50.80;;;;;;5041344;28;20812;-50
2022/10/06 01:26:19;;;;;;;5.70;2.57;;;22.30;50.60;;;;;;5044457;28;20454;-48
2022/10/06 01:28:46;;;;;;;2.53;2.33;;;22.30;50.60;;;;;;5046059;28;20494;-49
2022/10/06 01:31:12;;;;;;;3.10;2.70;;;22.30;50.70;;;;;;5049243;28;20447;-48
2022/10/06 01:33:38;;;;;;;3.93;2.83;;;22.30;50.90;;;;;;5042583;28;20444;-48
2022/10/06 01:36:04;;;;;;;4.73;2.90;;;22.20;50.90;;;;;;5042954;28;20776;-47
2022/10/06 01:38:29;;;;;;;3.03;2.83;;;22.10;51.00;;;;;;5050510;28;20196;-47
2022/10/06 01:40:55;;;;;;;4.10;2.63;;;22.10;51.10;;;;;;5048637;28;20440;-49
2022/10/06 01:43:20;;;;;;;3.23;2.50;;;22.10;51.20;;;;;;5047640;28;20250;-48
2022/10/06 01:45:53;;;;;;;4.47;2.67;;;22.10;51.20;;;;;;5044234;28;20537;-50
2022/10/06 01:48:19;;;;;;;3.43;2.87;;;22.10;51.00;;;;;;5040112;28;20215;-48
2022/10/06 01:50:44;;;;;;;3.10;2.80;;;22.10;50.90;;;;;;5042492;28;20926;-49
2022/10/06 01:53:10;;;;;;;2.73;2.53;;;22.10;50.80;;;;;;5045802;28;20691;-48
2022/10/06 01:55:35;;;;;;;4.80;2.70;;;22.10;50.90;;;;;;5043431;28;20565;-49
2022/10/06 01:58:01;;;;;;;3.00;2.60;;;22.10;50.90;;;;;;5043223;28;20227;-49
2022/10/06 02:00:27;;;;;;;6.17;2.87;;;22.00;51.00;;;;;;5044054;28;20184;-48
2022/10/06 02:02:53;;;;;;;4.03;2.67;;;21.90;51.80;;;;;;5041824;28;20198;-50
2022/10/06 02:05:18;;;;;;;2.83;2.20;;;21.80;51.60;;;;;;5045257;28;20225;-49
2022/10/06 02:07:44;;;;;;;4.63;2.63;;;21.70;51.70;;;;;;5046237;28;20192;-48
2022/10/06 02:10:09;;;;;;;3.30;2.70;;;21.70;51.80;;;;;;5042103;28;20254;-49
2022/10/06 02:12:35;;;;;;;3.97;2.87;;;21.70;51.80;;;;;;5046905;28;20180;-48
2022/10/06 02:15:00;;;;;;;2.87;2.60;;;21.70;51.70;;;;;;5045255;28;20279;-48
2022/10/06 02:17:27;;;;;;;3.67;2.70;;;21.70;51.70;;;;;;5046252;28;20649;-48
2022/10/06 02:19:52;;;;;;;3.60;2.73;;;21.60;52.30;;;;;;5047681;28;20197;-52
2022/10/06 02:22:18;;;;;;;3.37;2.83;;;21.60;51.80;;;;;;5044238;28;21022;-50
2022/10/06 02:24:43;;;;;;;3.33;3.03;;;21.60;51.70;;;;;;5043032;28;20200;-52
2022/10/06 02:27:09;;;;;;;2.70;2.50;;;21.60;51.80;;;;;;5043083;28;20296;-50
2022/10/06 02:29:35;;;;;;;2.73;2.50;;;21.50;51.90;;;;;;5051514;28;20240;-52
2022/10/06 02:32:00;;;;;;;2.87;2.67;;;21.50;52.00;;;;;;5044655;28;20232;-52
2022/10/06 02:34:26;;;;;;;4.90;2.50;;;21.50;52.00;;;;;;5046913;28;20596;-51
2022/10/06 02:36:51;;;;;;;3.20;2.63;;;21.50;52.00;;;;;;5047746;28;20204;-50
2022/10/06 02:39:17;;;;;;;5.73;2.60;;;21.50;51.90;;;;;;5049295;28;20196;-48
2022/10/06 02:41:43;;;;;;;2.60;2.40;;;21.50;52.10;;;;;;5044601;28;20588;-51
2022/10/06 02:44:08;;;;;;;3.43;2.63;;;21.50;52.20;;;;;;5052092;28;20196;-52
2022/10/06 02:46:34;;;;;;;3.10;2.80;;;21.50;52.30;;;;;;5044891;28;20200;-51
2022/10/06 02:49:00;;;;;;;2.70;2.50;;;21.40;52.10;;;;;;5047962;28;20315;-48
2022/10/06 02:51:25;;;;;;;5.67;3.00;;;21.30;52.70;;;;;;5049172;28;20592;-50
2022/10/06 02:53:51;;;;;;;3.30;2.60;;;21.20;52.90;;;;;;5051427;28;20212;-49
2022/10/06 02:56:24;;;;;;;3.67;2.73;;;21.20;52.90;;;;;;5049551;28;20626;-52
2022/10/06 02:58:51;;;;;;;3.13;2.83;;;21.20;52.80;;;;;;5051753;28;20461;-49
2022/10/06 03:01:23;;;;;;;3.10;2.70;;;21.10;52.70;;;;;;5051749;28;20484;-49
2022/10/06 03:03:49;;;;;;;4.10;2.90;;;21.10;52.60;;;;;;5043562;28;20446;-49
2022/10/06 03:06:22;;;;;;;2.93;2.60;;;21.00;52.70;;;;;;5044458;28;20488;-52
2022/10/06 03:08:53;;;;;;;6.23;3.53;;;21.00;53.20;;;;;;5048358;28;20486;-49
2022/10/06 03:11:22;;;;;;;5.03;2.77;;;20.80;53.40;;;;;;5046530;28;20461;-52
2022/10/06 03:13:48;;;;;;;4.20;3.30;;;20.80;53.60;;;;;;5046598;28;20444;-47
2022/10/06 03:16:23;;;;;;;3.50;3.20;;;20.70;53.60;;;;;;5045323;28;20778;-52
2022/10/06 03:18:51;;;;;;;5.00;3.20;;;20.60;53.70;;;;;;5046790;28;20518;-48
2022/10/06 03:21:17;;;;;;;3.80;3.10;;;20.50;53.90;;;;;;5046150;28;20453;-51
2022/10/06 03:23:45;;;;;;;3.07;2.87;;;20.40;54.10;;;;;;5050038;28;20769;-48
2022/10/06 03:26:11;;;;;;;3.20;2.90;;;20.30;54.30;;;;;;5047117;28;20492;-52
2022/10/06 03:28:39;;;;;;;3.47;2.97;;;20.20;54.60;;;;;;5042109;28;20668;-49
2022/10/06 03:31:05;;;;;;;4.83;3.40;;;20.10;54.90;;;;;;5048787;28;20446;-53
2022/10/06 03:33:32;;;;;;;5.90;3.57;;;20.00;55.20;;;;;;5046127;28;20496;-47
2022/10/06 03:36:02;;;;;;;3.70;3.30;;;20.00;55.30;;;;;;5030235;28;20931;-48
2022/10/06 03:38:32;;;;;;;3.27;3.00;;;20.00;55.50;;;;;;5048930;28;20946;-48
2022/10/06 03:41:18;;;;;;;3.93;2.87;;;19.90;55.80;;;;;;5045632;28;20455;-48
2022/10/06 03:43:45;;;;;;;5.97;3.00;;;19.90;56.10;;;;;;5044587;28;20847;-47
2022/10/06 03:46:13;;;;;;;4.13;3.10;;;19.80;56.30;;;;;;5052019;28;20467;-48
2022/10/06 03:48:38;;;;;;;4.57;3.57;;;19.80;56.30;;;;;;5044980;28;20484;-48
2022/10/06 03:51:14;;;;;;;6.20;4.50;;;19.80;56.50;;;;;;5043550;28;20493;-48
2022/10/06 03:53:43;;;;;;;6.03;3.70;;;19.80;56.70;;;;;;5048214;28;20248;-48
2022/10/06 03:56:13;;;;;;;4.13;3.80;;;19.80;56.80;;;;;;5045823;28;20512;-48
2022/10/06 03:58:41;;;;;;;7.60;4.73;;;19.80;56.90;;;;;;5048148;28;20926;-48
2022/10/06 04:01:08;;;;;;;5.50;4.47;;;19.80;56.90;;;;;;5047627;28;20762;-48
2022/10/06 04:03:34;;;;;;;4.23;3.47;;;19.80;56.70;;;;;;5046012;28;20440;-48
2022/10/06 04:06:03;;;;;;;6.80;3.90;;;19.60;56.30;;;;;;5040625;28;20973;-49
2022/10/06 04:08:30;;;;;;;4.80;3.10;;;19.60;56.80;;;;;;5042924;28;20992;-48
2022/10/06 04:11:07;;;;;;;6.80;3.10;;;19.60;57.00;;;;;;5036233;28;20446;-50
2022/10/06 04:13:33;;;;;;;4.77;3.00;;;19.60;57.30;;;;;;5049113;28;20493;-55
2022/10/06 04:16:12;;;;;;;3.70;3.40;;;19.60;57.50;;;;;;5036398;28;20964;-48
2022/10/06 04:18:38;;;;;;;4.00;3.60;;;19.60;57.50;;;;;;5045534;28;20197;-48
2022/10/06 04:21:04;;;;;;;5.33;3.70;;;19.60;57.60;;;;;;5041419;28;20436;-48
2022/10/06 04:23:30;;;;;;;4.03;3.67;;;19.30;58.20;;;;;;5048208;28;20469;-48
2022/10/06 04:26:01;;;;;;;7.67;3.60;;;19.30;58.30;;;;;;5043998;28;20661;-48
2022/10/06 04:28:28;;;;;;;5.50;3.53;;;19.40;58.00;;;;;;5045564;28;20581;-47
2022/10/06 04:31:00;;;;;;;5.13;4.47;;;19.40;57.50;;;;;;5047500;28;20976;-49
2022/10/06 04:33:27;;;;;;;4.70;4.10;;;19.20;57.60;;;;;;5046679;28;21001;-48
2022/10/06 04:36:01;;;;;;;4.67;3.63;;;19.20;57.80;;;;;;5045376;28;20953;-48
2022/10/06 04:38:28;;;;;;;4.33;3.93;;;19.30;57.80;;;;;;5047033;28;20447;-48
2022/10/06 04:40:56;;;;;;;4.50;4.10;;;19.30;57.70;;;;;;5042691;28;20467;-49
2022/10/06 04:43:22;;;;;;;4.40;3.77;;;19.30;58.00;;;;;;5046626;28;20553;-47
2022/10/06 04:45:55;;;;;;;7.27;3.80;;;19.30;58.20;;;;;;5047269;28;20551;-49
2022/10/06 04:48:21;;;;;;;4.47;4.07;;;19.30;58.50;;;;;;5049206;28;20553;-48
2022/10/06 04:50:56;;;;;;;4.60;3.23;;;19.20;58.60;;;;;;5047661;28;20864;-49
2022/10/06 04:53:22;;;;;;;5.67;3.10;;;19.30;58.70;;;;;;5046282;28;20200;-49
2022/10/06 04:56:02;;;;;;;4.17;3.57;;;19.30;58.80;;;;;;5042176;28;20851;-48
2022/10/06 04:58:36;;;;;;;3.57;3.27;;;19.30;58.70;;;;;;5044065;28;20969;-48
2022/10/06 05:01:03;;;;;;;5.40;4.90;;;19.30;58.70;;;;;;5041960;28;20550;-48
2022/10/06 05:03:29;;;;;;;4.70;3.30;;;19.40;58.70;;;;;;5048656;28;20467;-53
2022/10/06 05:06:13;;;;;;;6.90;3.10;;;19.40;58.50;;;;;;5043875;28;20443;-49
2022/10/06 05:08:39;;;;;;;4.90;3.17;;;19.40;58.50;;;;;;5043696;28;20884;-48
2022/10/06 05:11:07;;;;;;;5.27;3.27;;;19.50;58.60;;;;;;5040595;28;20513;-52
2022/10/06 05:13:36;;;;;;;7.30;3.30;;;19.50;58.70;;;;;;5039484;28;20204;-51
2022/10/06 05:16:04;;;;;;;4.30;3.20;;;19.50;58.90;;;;;;5046479;28;20442;-47
2022/10/06 05:18:30;;;;;;;6.23;3.87;;;19.60;59.10;;;;;;5047393;28;20443;-51
2022/10/06 05:20:58;;;;;;;4.60;3.00;;;19.70;59.00;;;;;;5043219;28;20575;-49
2022/10/06 05:23:25;;;;;;;12.07;4.77;;;19.80;58.80;;;;;;5039532;28;20467;-47
2022/10/06 05:25:52;;;;;;;7.17;5.10;;;19.90;58.70;;;;;;5037395;28;20532;-52
2022/10/06 05:28:19;;;;;;;6.10;4.63;;;19.90;58.30;;;;;;5048186;28;20518;-49
2022/10/06 05:30:59;;;;;;;8.10;5.33;;;20.00;58.20;;;;;;5050377;28;20427;-52
2022/10/06 05:33:27;;;;;;;7.47;5.23;;;20.00;58.10;;;;;;5042950;28;20435;-47
2022/10/06 05:36:04;;;;;;;6.17;5.00;;;20.00;58.20;;;;;;5048790;28;20454;-47
2022/10/06 05:38:31;;;;;;;6.33;5.03;;;20.00;58.10;;;;;;5044254;28;20499;-48
2022/10/06 05:41:07;;;;;;;4.90;4.50;;;20.00;57.90;;;;;;5044230;28;20867;-48
2022/10/06 05:43:34;;;;;;;5.20;4.70;;;20.10;57.80;;;;;;5039922;28;20440;-48
2022/10/06 05:46:03;;;;;;;4.67;4.27;;;20.00;57.60;;;;;;5039640;28;20443;-48
2022/10/06 05:48:29;;;;;;;5.57;4.97;;;20.10;57.60;;;;;;5049112;28;20515;-49
2022/10/06 05:51:05;;;;;;;5.50;4.33;;;20.10;57.50;;;;;;5047446;28;20442;-52
2022/10/06 05:53:34;;;;;;;11.90;5.20;;;20.00;57.60;;;;;;5047169;28;20879;-48
2022/10/06 05:56:08;;;;;;;12.53;4.53;;;20.00;57.70;;;;;;5049732;28;20564;-47
2022/10/06 05:58:36;;;;;;;5.00;4.40;;;20.00;57.60;;;;;;5047849;28;20529;-49
2022/10/06 06:01:26;;;;;;;7.87;4.70;;;20.00;57.50;;;;;;5046803;28;20447;-48
2022/10/06 06:03:54;;;;;;;7.17;4.40;;;20.00;57.40;;;;;;5030182;28;20475;-50
2022/10/06 06:06:22;;;;;;;5.57;4.87;;;20.00;57.40;;;;;;5038768;28;21051;-48
2022/10/06 06:08:55;;;;;;;5.17;4.20;;;20.00;57.30;;;;;;5039360;28;20488;-47
2022/10/06 06:11:24;;;;;;;5.90;5.27;;;20.10;57.40;;;;;;5044652;28;20504;-50
2022/10/06 06:13:51;;;;;;;5.60;4.20;;;20.00;57.30;;;;;;5046216;28;20443;-52
2022/10/06 06:16:17;;;;;;;10.27;6.20;;;20.00;57.50;;;;;;5043941;28;20447;-48
2022/10/06 06:18:42;;;;;;;8.43;4.70;;;20.00;57.70;;;;;;5043091;28;20500;-50
2022/10/06 06:21:09;;;;;;;6.30;4.67;;;20.00;58.00;;;;;;5043844;28;20192;-48
2022/10/06 06:23:45;;;;;;;6.37;4.67;;;20.10;58.00;;;;;;5045784;28;20185;-47
2022/10/06 06:26:13;;;;;;;6.67;5.03;;;20.10;58.00;;;;;;5044276;28;21764;-49
2022/10/06 06:28:40;;;;;;;6.40;5.00;;;20.10;58.20;;;;;;5040820;28;20942;-49
2022/10/06 06:31:07;;;;;;;5.33;4.43;;;20.10;58.30;;;;;;5047867;28;20596;-48
2022/10/06 06:33:37;;;;;;;6.73;4.73;;;20.10;58.30;;;;;;5037276;28;20447;-48
2022/10/06 06:36:27;;;;;;;6.67;4.63;;;20.10;58.40;;;;;;5048251;28;20565;-50
2022/10/06 06:38:55;;;;;;;4.97;4.40;;;20.20;58.50;;;;;;5040775;28;20447;-52
2022/10/06 06:41:23;;;;;;;6.00;4.20;;;20.10;58.60;;;;;;5037822;28;20458;-48
2022/10/06 06:43:51;;;;;;;8.70;4.63;;;20.10;58.70;;;;;;5037483;28;20802;-47
2022/10/06 06:46:19;;;;;;;8.40;4.70;;;20.20;58.80;;;;;;5034836;28;20450;-48
2022/10/06 06:48:46;;;;;;;5.70;5.10;;;20.20;58.80;;;;;;5042017;28;21031;-50
2022/10/06 06:51:12;;;;;;;8.63;5.40;;;20.30;58.70;;;;;;5044263;28;20451;-47
2022/10/06 06:53:40;;;;;;;6.03;5.07;;;20.30;58.60;;;;;;5046951;28;20438;-49
2022/10/06 06:56:08;;;;;;;7.03;4.80;;;20.30;58.70;;;;;;5041179;28;20474;-49
2022/10/06 06:58:37;;;;;;;7.33;4.80;;;20.40;58.90;;;;;;5041790;28;20445;-48
2022/10/06 07:01:07;;;;;;;9.90;6.07;;;20.30;59.00;;;;;;5038555;28;20447;-48
2022/10/06 07:03:33;;;;;;;5.37;4.67;;;20.40;59.40;;;;;;5039535;28;20997;-51
2022/10/06 07:06:09;;;;;;;5.03;4.27;;;20.50;59.60;;;;;;5047567;28;20569;-52
2022/10/06 07:08:37;;;;;;;5.93;3.70;;;20.60;59.60;;;;;;5046064;28;20892;-48
2022/10/06 07:11:19;;;;;;;5.60;4.70;;;20.60;59.60;;;;;;5046588;28;20824;-48
2022/10/06 07:13:46;;;;;;;7.27;5.63;;;20.70;59.90;;;;;;5043629;28;20444;-47
2022/10/06 07:27:19;;;;;;;6.17;4.80;;;20.80;60.40;;;;;;5039123;28;20509;-49
2022/10/06 07:29:45;;;;;;;7.17;4.57;;;20.70;60.60;;;;;;5044324;28;20487;-52
2022/10/06 07:32:12;;;;;;;6.87;4.73;;;20.70;60.40;;;;;;5045772;28;20553;-50
2022/10/06 07:34:38;;;;;;;7.93;4.77;;;20.80;60.30;;;;;;5044828;28;20443;-48
2022/10/06 07:37:04;;;;;;;8.77;5.00;;;20.90;60.00;;;;;;5045449;28;20542;-51
2022/10/06 07:39:30;;;;;;;6.93;4.80;;;21.00;59.90;;;;;;5043569;28;20480;-50
2022/10/06 07:41:56;;;;;;;8.37;4.40;;;21.10;59.90;;;;;;5047504;28;20197;-49
2022/10/06 07:44:22;;;;;;;6.80;4.60;;;21.10;59.70;;;;;;5039908;28;20454;-49
2022/10/06 07:46:47;;;;;;;5.80;5.30;;;21.10;59.70;;;;;;5046322;28;20197;-48
2022/10/06 07:49:16;;;;;;;6.40;4.90;;;21.20;59.80;;;;;;5035887;28;20228;-54
2022/10/06 07:51:43;;;;;;;7.33;5.03;;;21.20;59.90;;;;;;5043263;28;20209;-52
2022/10/06 07:54:08;;;;;;;7.77;4.90;;;21.30;60.00;;;;;;5045998;28;20829;-47
2022/10/06 07:56:34;;;;;;;6.07;4.90;;;21.30;60.20;;;;;;5050557;28;20443;-53
2022/10/06 07:58:59;;;;;;;5.53;4.20;;;21.30;60.60;;;;;;5050357;28;20573;-52
2022/10/06 08:01:26;;;;;;;8.70;4.73;;;21.40;60.50;;;;;;5042875;28;20188;-48
2022/10/06 08:03:51;;;;;;;6.07;4.20;;;21.40;60.30;;;;;;5043241;28;20574;-48
2022/10/06 08:06:18;;;;;;;4.93;4.43;;;21.50;60.40;;;;;;5044684;28;20435;-48
2022/10/06 08:08:45;;;;;;;5.10;4.13;;;21.40;60.90;;;;;;5044291;28;20216;-49
2022/10/06 08:11:12;;;;;;;5.47;4.23;;;21.40;61.30;;;;;;5044912;28;21493;-48
2022/10/06 08:13:41;;;;;;;4.67;3.80;;;21.40;61.00;;;;;;5036987;28;20442;-51
2022/10/06 08:16:13;;;;;;;4.40;3.47;;;21.50;60.90;;;;;;5039826;28;21294;-49
2022/10/06 08:18:40;;;;;;;5.73;3.93;;;21.40;61.20;;;;;;5051862;28;20442;-51
2022/10/06 08:21:20;;;;;;;4.53;3.50;;;21.40;60.60;;;;;;5051004;28;20451;-52
2022/10/06 08:23:48;;;;;;;3.90;3.20;;;21.40;60.60;;;;;;5048697;28;20444;-51
2022/10/06 08:26:16;;;;;;;5.70;3.60;;;21.40;60.60;;;;;;5050733;28;20434;-51
2022/10/06 08:28:50;;;;;;;4.30;3.07;;;21.50;60.30;;;;;;5043438;28;20995;-48
2022/10/06 08:31:19;;;;;;;9.77;3.50;;;21.40;60.80;;;;;;5057993;28;20432;-48
2022/10/06 08:33:46;;;;;;;3.60;3.13;;;21.50;60.60;;;;;;5039633;28;20463;-51
2022/10/06 08:36:18;;;;;;;5.60;3.30;;;21.60;60.10;;;;;;5039582;28;20442;-50
2022/10/06 08:38:49;;;;;;;5.77;3.23;;;21.60;59.90;;;;;;5036661;28;20483;-52
2022/10/06 08:41:23;;;;;;;7.60;3.70;;;21.80;59.70;;;;;;5031848;28;20828;-52
2022/10/06 08:43:58;;;;;;;11.00;4.27;;;21.80;59.50;;;;;;5044890;28;20541;-52
2022/10/06 08:46:31;;;;;;;4.00;3.60;;;21.90;59.50;;;;;;5040255;28;20438;-52
2022/10/06 08:48:57;;;;;;;3.50;2.93;;;21.70;59.60;;;;;;5047303;28;20990;-49
2022/10/06 08:51:47;;;;;;;17.40;3.20;;;21.70;59.50;;;;;;5045880;28;21169;-53
2022/10/06 08:54:40;;;;;;;4.03;2.43;;;21.80;59.20;;;;;;5040126;28;20443;-48
2022/10/06 08:57:31;;;;;;;3.30;2.13;;;21.90;58.30;;;;;;5032127;28;20450;-48
2022/10/06 08:59:58;;;;;;;4.80;2.47;;;22.00;58.00;;;;;;5046969;28;20446;-49
2022/10/06 09:02:37;;;;;;;8.83;3.30;;;22.10;57.60;;;;;;5041332;28;20447;-50
2022/10/06 09:05:04;;;;;;;3.37;2.40;;;22.20;57.30;;;;;;5047591;28;20472;-50
2022/10/06 09:07:33;;;;;;;5.87;2.60;;;22.20;56.80;;;;;;5041328;28;20970;-51
2022/10/06 09:10:23;;;;;;;4.23;2.50;;;22.30;56.40;;;;;;5047347;28;20837;-49
2022/10/06 09:13:02;;;;;;;3.50;1.70;;;22.30;55.80;;;;;;5045644;28;20526;-49
2022/10/06 09:15:49;;;;;;;5.67;2.47;;;22.30;54.80;;;;;;5044751;28;20521;-47
2022/10/06 09:18:33;;;;;;;4.30;1.90;;;22.20;54.80;;;;;;5045714;28;20487;-49
2022/10/06 09:21:05;;;;;;;4.93;2.30;;;22.00;55.00;;;;;;5039162;28;20552;-51
2022/10/06 09:23:49;;;;;;;4.53;2.20;;;22.10;55.00;;;;;;5043876;28;20443;-51
2022/10/06 09:26:27;;;;;;;2.20;1.97;;;22.20;55.00;;;;;;5042004;28;20872;-51
2022/10/06 09:28:53;;;;;;;4.60;2.17;;;22.20;55.00;;;;;;5046573;28;20544;-50
2022/10/06 09:31:30;;;;;;;4.73;2.43;;;22.20;54.70;;;;;;5061244;28;20535;-50
2022/10/06 09:34:08;;;;;;;5.60;1.63;;;22.30;54.40;;;;;;5047554;28;20477;-50
2022/10/06 09:37:01;;;;;;;2.93;1.83;;;22.40;54.30;;;;;;5045351;28;20459;-50
2022/10/06 09:39:35;;;;;;;5.50;3.33;;;22.50;54.20;;;;;;5047384;28;20466;-48
2022/10/06 09:42:05;;;;;;;5.90;2.07;;;22.50;54.30;;;;;;5047891;28;20463;-49
2022/10/06 09:44:50;;;;;;;2.60;1.87;;;22.50;54.20;;;;;;5045191;28;21024;-53
2022/10/06 09:47:27;;;;;;;4.63;1.97;;;22.70;54.10;;;;;;5045111;28;20454;-50
2022/10/06 09:50:10;;;;;;;4.27;2.20;;;22.80;54.30;;;;;;5049233;28;20486;-51
2022/10/06 09:52:37;;;;;;;4.70;2.43;;;22.90;54.10;;;;;;5040441;28;20458;-52
2022/10/06 09:55:14;;;;;;;3.77;2.00;;;23.00;53.30;;;;;;5043700;28;20457;-52
2022/10/06 09:57:51;;;;;;;3.50;1.80;;;23.10;53.00;;;;;;5045556;28;20454;-50
2022/10/06 10:00:34;;;;;;;3.43;2.17;;;23.10;52.20;;;;;;5042940;28;20442;-50
2022/10/06 10:03:10;;;;;;;1.67;1.57;;;23.00;52.80;;;;;;5031750;28;20526;-51
2022/10/06 10:05:38;;;;;;;3.30;2.00;;;23.00;52.70;;;;;;5043153;28;20447;-51
2022/10/06 10:08:16;;;;;;;3.00;1.87;;;23.00;52.90;;;;;;5038219;28;20447;-51
2022/10/06 10:10:42;;;;;;;2.97;2.07;;;23.10;52.90;;;;;;5042399;28;20482;-52
2022/10/06 10:13:21;;;;;;;6.87;2.17;;;23.10;53.60;;;;;;5045854;28;20435;-50
2022/10/06 10:15:59;;;;;;;3.83;2.23;;;23.10;52.80;;;;;;5045326;28;20275;-50
2022/10/06 10:18:29;;;;;;;5.17;1.80;;;23.10;52.60;;;;;;5042922;28;20448;-50
2022/10/06 10:20:57;;;;;;;9.27;1.90;;;23.10;52.60;;;;;;5039268;28;20442;-50
2022/10/06 10:23:28;;;;;;;3.73;1.60;;;23.20;52.70;;;;;;5045460;28;20547;-48
2022/10/06 10:26:03;;;;;;;4.97;2.00;;;23.20;51.60;;;;;;5046608;28;20442;-50
2022/10/06 10:28:49;;;;;;;4.83;2.30;;;23.10;51.70;;;;;;5044150;28;21100;-48
2022/10/06 10:31:40;;;;;;;2.07;1.87;;;23.10;51.40;;;;;;5051544;28;20439;-47
2022/10/06 10:34:25;;;;;;;3.23;1.93;;;23.20;51.60;;;;;;5005070;28;20498;-50
2022/10/06 10:37:02;;;;;;;3.73;2.03;;;23.20;52.20;;;;;;5046011;28;20450;-51
2022/10/06 10:39:27;;;;;;;6.03;2.30;;;23.00;52.20;;;;;;5044870;28;20450;-51
2022/10/06 10:41:55;;;;;;;2.63;1.70;;;23.20;52.60;;;;;;5046025;28;20442;-51
2022/10/06 10:44:32;;;;;;;4.80;1.50;;;23.30;52.60;;;;;;5044219;28;20581;-49
2022/10/06 10:47:17;;;;;;;2.50;1.53;;;23.50;51.00;;;;;;5041287;28;20471;-47
2022/10/06 10:49:57;;;;;;;6.10;1.70;;;23.70;50.40;;;;;;5035280;28;20491;-48
2022/10/06 10:52:29;;;;;;;6.03;2.47;;;23.80;50.50;;;;;;5040134;28;20473;-48
2022/10/06 10:55:17;;;;;;;2.93;1.57;;;24.10;50.00;;;;;;5040592;28;20455;-50
2022/10/06 10:57:44;;;;;;;2.37;1.63;;;24.30;48.40;;;;;;5046611;28;20458;-46
2022/10/06 11:00:21;;;;;;;2.27;1.60;;;24.40;48.40;;;;;;5050060;28;20447;-47
2022/10/06 11:02:49;;;;;;;4.57;1.70;;;24.60;48.40;;;;;;5051748;28;20443;-46
2022/10/06 11:05:36;;;;;;;3.40;1.80;;;24.70;48.20;;;;;;5043588;28;20937;-47
2022/10/06 11:08:10;;;;;;;5.33;2.13;;;25.00;48.80;;;;;;5045947;28;20470;-47
2022/10/06 11:10:54;;;;;;;3.73;2.40;;;25.30;47.80;;;;;;5034899;28;20542;-49
2022/10/06 11:13:32;;;;;;;4.13;2.80;;;25.60;46.10;;;;;;5045232;28;20511;-49
2022/10/06 11:16:15;;;;;;;2.80;1.40;;;25.70;46.20;;;;;;5036495;28;20472;-49
2022/10/06 11:19:01;;;;;;;2.17;1.53;;;25.80;45.40;;;;;;5050422;28;20493;-47
2022/10/06 11:21:38;;;;;;;1.93;1.40;;;25.90;46.00;;;;;;5048967;28;20442;-48
2022/10/06 11:24:31;;;;;;;3.70;1.93;;;26.00;45.90;;;;;;5049340;28;20529;-50
2022/10/06 11:27:21;;;;;;;6.33;1.80;;;26.20;46.20;;;;;;5048243;28;20522;-48
2022/10/06 11:29:53;;;;;;;5.17;1.67;;;26.30;46.20;;;;;;5053508;28;20587;-47
2022/10/06 11:32:37;;;;;;;3.00;1.50;;;26.40;45.40;;;;;;5048512;28;20459;-50
2022/10/06 11:35:21;;;;;;;2.37;1.60;;;26.40;44.80;;;;;;5048484;28;20419;-48
2022/10/06 11:38:05;;;;;;;4.00;1.47;;;26.40;45.30;;;;;;5049729;28;20447;-50
2022/10/06 11:40:46;;;;;;;2.80;1.63;;;26.50;45.50;;;;;;5049401;28;20442;-49
2022/10/06 11:43:26;;;;;;;3.77;1.47;;;26.50;45.70;;;;;;5048519;28;20439;-48
2022/10/06 11:46:27;;;;;;;2.87;1.40;;;26.60;46.10;;;;;;5044964;28;20455;-47
2022/10/06 11:49:28;;;;;;;2.90;1.70;;;26.60;46.10;;;;;;5048722;28;20543;-48
2022/10/06 11:52:13;;;;;;;5.63;2.37;;;26.70;44.90;;;;;;5049455;28;20445;-47
2022/10/06 11:54:39;;;;;;;6.07;2.97;;;26.80;44.20;;;;;;5048200;28;20443;-48
2022/10/06 11:57:26;;;;;;;3.30;2.30;;;26.90;44.70;;;;;;5047242;28;20455;-48
2022/10/06 12:00:18;;;;;;;7.43;1.80;;;27.10;45.10;;;;;;5042991;28;20197;-48
2022/10/06 12:02:45;;;;;;;2.73;1.70;;;27.40;43.50;;;;;;5013233;28;20443;-47
2022/10/06 12:05:14;;;;;;;2.97;1.77;;;27.50;43.50;;;;;;5048156;28;20451;-51
2022/10/06 12:07:52;;;;;;;2.20;1.93;;;27.60;43.30;;;;;;5042807;28;21288;-47
2022/10/06 12:10:26;;;;;;;3.20;1.70;;;27.70;42.30;;;;;;5047444;28;20490;-48
2022/10/06 12:13:34;;;;;;;3.97;1.50;;;27.50;41.90;;;;;;5041955;28;20500;-48
2022/10/06 12:16:06;;;;;;;2.63;1.63;;;27.30;42.10;;;;;;5043067;28;20451;-48
2022/10/06 12:18:48;;;;;;;4.70;1.93;;;27.10;43.00;;;;;;5046700;28;20582;-49
2022/10/06 12:21:35;;;;;;;3.30;1.50;;;27.10;43.50;;;;;;5046060;28;20451;-48
2022/10/06 12:24:19;;;;;;;2.90;1.60;;;27.20;43.70;;;;;;5048232;28;20470;-48
2022/10/06 12:27:07;;;;;;;3.93;1.60;;;27.20;43.90;;;;;;5039020;28;20939;-49
2022/10/06 12:29:55;;;;;;;3.10;1.30;;;27.00;44.50;;;;;;5046237;28;20556;-47
2022/10/06 12:32:39;;;;;;;3.20;1.73;;;26.80;44.80;;;;;;5029765;28;20452;-47
2022/10/06 12:35:08;;;;;;;3.83;1.97;;;26.70;44.30;;;;;;5047373;28;20451;-48
2022/10/06 12:37:40;;;;;;;3.33;1.50;;;26.70;44.90;;;;;;5050679;28;20458;-47
2022/10/06 12:40:45;;;;;;;3.43;1.50;;;26.70;45.00;;;;;;5048762;28;20466;-49
2022/10/06 12:43:13;;;;;;;3.73;1.63;;;26.60;44.60;;;;;;5044776;28;20440;-51
2022/10/06 12:46:04;;;;;;;3.30;1.87;;;26.50;44.30;;;;;;5045598;28;20848;-51
2022/10/06 12:48:50;;;;;;;4.47;1.50;;;26.50;44.90;;;;;;5049827;28;20522;-50
2022/10/06 12:51:22;;;;;;;4.57;1.80;;;26.40;45.40;;;;;;5037702;28;21042;-48
2022/10/06 12:54:14;;;;;;;2.70;1.60;;;26.30;45.20;;;;;;5046690;28;20827;-47
2022/10/06 12:56:41;;;;;;;4.73;1.80;;;26.20;44.80;;;;;;5049187;28;20455;-47
2022/10/06 12:59:20;;;;;;;6.00;2.17;;;26.20;45.40;;;;;;5043969;28;20509;-49
2022/10/06 13:01:49;;;;;;;5.07;1.70;;;26.40;45.40;;;;;;5037381;28;20479;-47
2022/10/06 13:04:34;;;;;;;5.10;1.40;;;26.30;44.90;;;;;;5047347;28;20439;-47
2022/10/06 13:07:16;;;;;;;9.13;2.07;;;26.20;45.60;;;;;;5043013;28;20439;-47
2022/10/06 13:09:42;;;;;;;5.60;1.57;;;26.10;44.90;;;;;;5039737;28;20490;-50
2022/10/06 13:12:37;;;;;;;3.37;1.67;;;26.10;44.50;;;;;;5041530;28;20442;-49
2022/10/06 13:15:10;;;;;;;7.30;1.90;;;26.10;45.00;;;;;;5022909;28;20845;-47
2022/10/06 13:18:13;;;;;;;2.33;1.20;;;26.10;45.40;;;;;;5045255;28;20576;-47
2022/10/06 13:20:48;;;;;;;6.07;1.97;;;26.10;44.90;;;;;;5039142;28;20455;-51
2022/10/06 13:23:34;;;;;;;2.57;1.40;;;26.10;45.00;;;;;;5045475;28;20443;-48